createdAt,value
2018-02-01T00:01:04.921Z,41.82
2018-02-01T00:03:32.550Z,41.86
2018-02-01T00:06:00.666Z,41.91
2018-02-01T00:08:28.211Z,41.88
2018-02-01T00:10:55.760Z,41.94
2018-02-01T00:13:23.356Z,41.97
2018-02-01T00:15:50.899Z,41.94
2018-02-01T00:18:18.494Z,42.08
2018-02-01T00:20:46.627Z,42.11
2018-02-01T00:23:14.166Z,42.16
2018-02-01T00:25:41.750Z,42.17
2018-02-01T00:28:09.301Z,42.13
2018-02-01T00:30:36.900Z,42.03
2018-02-01T00:33:04.446Z,42.07
2018-02-01T00:35:32.070Z,42.13
2018-02-01T00:37:59.699Z,42.16
2018-02-01T00:40:27.248Z,42.30
2018-02-01T00:42:54.892Z,42.29
2018-02-01T00:45:22.506Z,42.18
2018-02-01T00:47:50.095Z,42.17
2018-02-01T00:50:17.634Z,42.20
2018-02-01T00:52:45.255Z,42.20
2018-02-01T00:55:12.812Z,42.33
2018-02-01T00:57:40.358Z,42.35
2018-02-01T01:00:08.605Z,42.32
2018-02-01T01:02:36.155Z,42.13
2018-02-01T01:05:03.751Z,42.20
2018-02-01T01:07:31.308Z,42.26
2018-02-01T01:09:58.866Z,42.34
2018-02-01T01:12:26.463Z,42.31
2018-02-01T01:14:54.016Z,42.27
2018-02-01T01:17:22.035Z,42.10
2018-02-01T01:19:49.574Z,42.08
2018-02-01T01:22:17.123Z,42.09
2018-02-01T01:24:44.751Z,42.02
2018-02-01T01:27:12.299Z,42.14
2018-02-01T01:29:39.868Z,42.19
2018-02-01T01:32:07.489Z,42.20
2018-02-01T01:34:35.627Z,42.15
2018-02-01T01:37:03.201Z,42.16
2018-02-01T01:39:30.778Z,42.21
2018-02-01T01:41:59.491Z,41.96
2018-02-01T01:44:27.088Z,42.03
2018-02-01T01:46:54.658Z,42.07
2018-02-01T01:49:22.256Z,42.18
2018-02-01T01:51:50.104Z,42.01
2018-02-01T01:54:17.668Z,41.83
2018-02-01T01:56:45.635Z,41.87
2018-02-01T01:59:13.240Z,41.85
2018-02-01T02:01:40.844Z,41.97
2018-02-01T02:04:08.435Z,41.78
2018-02-01T02:06:37.431Z,41.82
2018-02-01T02:09:05.089Z,41.83
2018-02-01T02:11:32.717Z,41.83
2018-02-01T02:14:00.963Z,41.87
2018-02-01T02:16:28.520Z,41.86
2018-02-01T02:18:56.424Z,41.77
2018-02-01T02:21:24.031Z,41.78
2018-02-01T02:23:52.039Z,41.80
2018-02-01T02:26:19.636Z,41.91
2018-02-01T02:28:47.192Z,42.00
2018-02-01T02:31:14.938Z,41.88
2018-02-01T02:33:42.876Z,41.85
2018-02-01T02:36:10.843Z,41.93
2018-02-01T02:38:38.431Z,41.89
2018-02-01T02:41:06.424Z,41.82
2018-02-01T02:43:34.369Z,42.00
2018-02-01T02:46:01.968Z,41.98
2018-02-01T02:48:29.572Z,42.13
2018-02-01T02:50:57.120Z,42.13
2018-02-01T02:53:24.713Z,42.23
2018-02-01T02:55:52.288Z,42.24
2018-02-01T02:58:20.712Z,42.15
2018-02-01T03:00:48.715Z,42.05
2018-02-01T03:03:16.268Z,42.08
2018-02-01T03:05:44.000Z,41.77
2018-02-01T03:08:11.587Z,41.68
2018-02-01T03:10:39.174Z,41.95
2018-02-01T03:13:06.724Z,41.85
2018-02-01T03:15:34.333Z,41.81
2018-02-01T03:18:01.883Z,41.84
2018-02-01T03:20:29.434Z,41.84
2018-02-01T03:22:57.540Z,41.88
2018-02-01T03:25:25.431Z,41.98
2018-02-01T03:27:52.980Z,42.18
2018-02-01T03:30:20.565Z,42.11
2018-02-01T03:32:48.478Z,42.00
2018-02-01T03:35:16.027Z,41.95
2018-02-01T03:37:43.637Z,41.90
2018-02-01T03:40:11.193Z,41.81
2018-02-01T03:42:38.741Z,41.95
2018-02-01T03:45:07.303Z,41.95
2018-02-01T03:47:35.488Z,41.91
2018-02-01T03:50:03.996Z,41.84
2018-02-01T03:52:32.061Z,41.88
2018-02-01T03:54:59.669Z,41.90
2018-02-01T03:57:27.244Z,41.98
2018-02-01T03:59:54.796Z,41.97
2018-02-01T04:02:22.398Z,41.73
2018-02-01T04:04:49.947Z,41.64
2018-02-01T04:07:17.530Z,41.84
2018-02-01T04:09:45.077Z,41.89
2018-02-01T04:12:12.803Z,41.97
2018-02-01T04:14:40.406Z,42.01
2018-02-01T04:17:07.996Z,41.95
2018-02-01T04:19:35.592Z,41.86
2018-02-01T04:22:03.178Z,41.89
2018-02-01T04:24:30.772Z,41.92
2018-02-01T04:26:58.568Z,42.00
2018-02-01T04:29:26.676Z,42.09
2018-02-01T04:31:54.222Z,42.15
2018-02-01T04:34:21.770Z,42.16
2018-02-01T04:36:49.355Z,42.13
2018-02-01T04:39:16.898Z,42.21
2018-02-01T04:41:45.290Z,42.27
2018-02-01T04:44:12.840Z,42.38
2018-02-01T04:46:41.345Z,42.37
2018-02-01T04:49:08.891Z,42.33
2018-02-01T04:51:36.480Z,42.32
2018-02-01T04:54:04.022Z,42.35
2018-02-01T04:56:31.606Z,42.40
2018-02-01T04:58:59.212Z,42.38
2018-02-01T05:01:26.786Z,42.37
2018-02-01T05:03:54.330Z,42.42
2018-02-01T05:06:21.923Z,42.37
2018-02-01T05:08:49.888Z,42.29
2018-02-01T05:11:17.487Z,42.32
2018-02-01T05:13:45.031Z,42.44
2018-02-01T05:16:14.059Z,42.49
2018-02-01T05:18:41.976Z,42.42
2018-02-01T05:21:09.531Z,42.16
2018-02-01T05:23:37.092Z,42.06
2018-02-01T05:26:04.683Z,42.01
2018-02-01T05:28:32.278Z,42.09
2018-02-01T05:30:59.885Z,42.06
2018-02-01T05:33:27.452Z,42.14
2018-02-01T05:35:55.047Z,42.24
2018-02-01T05:38:22.595Z,42.10
2018-02-01T05:40:50.811Z,42.00
2018-02-01T05:43:18.898Z,41.93
2018-02-01T05:45:47.044Z,42.04
2018-02-01T05:48:14.622Z,42.20
2018-02-01T05:50:42.210Z,42.51
2018-02-01T05:53:10.211Z,42.37
2018-02-01T05:55:37.816Z,42.27
2018-02-01T05:58:05.371Z,42.23
2018-02-01T06:00:32.928Z,42.13
2018-02-01T06:03:00.524Z,42.13
2018-02-01T06:05:28.212Z,42.21
2018-02-01T06:07:55.823Z,42.26
2018-02-01T06:10:23.381Z,41.94
2018-02-01T06:12:50.931Z,41.55
2018-02-01T06:15:18.494Z,40.91
2018-02-01T06:17:46.111Z,40.23
2018-02-01T06:20:13.674Z,39.27
2018-02-01T06:22:41.288Z,38.74
2018-02-01T06:25:08.858Z,38.46
2018-02-01T06:27:36.484Z,38.07
2018-02-01T06:30:04.040Z,37.39
2018-02-01T06:32:31.588Z,37.33
2018-02-01T06:34:59.206Z,37.13
2018-02-01T06:37:27.307Z,37.18
2018-02-01T06:39:55.915Z,37.18
2018-02-01T06:42:23.831Z,37.14
2018-02-01T06:44:51.513Z,37.24
2018-02-01T06:47:20.605Z,36.90
2018-02-01T06:49:48.213Z,36.86
2018-02-01T06:52:15.782Z,37.11
2018-02-01T06:54:44.420Z,37.33
2018-02-01T06:57:12.698Z,37.64
2018-02-01T06:59:40.286Z,37.45
2018-02-01T07:02:08.750Z,37.62
2018-02-01T07:04:36.674Z,37.85
2018-02-01T07:07:05.092Z,38.00
2018-02-01T07:09:32.988Z,38.15
2018-02-01T07:12:01.046Z,38.11
2018-02-01T07:14:29.220Z,38.06
2018-02-01T07:16:56.874Z,38.08
2018-02-01T07:19:24.908Z,38.13
2018-02-01T07:21:52.464Z,38.01
2018-02-01T07:24:20.087Z,37.92
2018-02-01T07:26:47.755Z,37.89
2018-02-01T07:29:16.126Z,37.75
2018-02-01T07:31:43.951Z,37.59
2018-02-01T07:34:11.573Z,37.50
2018-02-01T07:36:39.445Z,37.47
2018-02-01T07:39:07.048Z,37.38
2018-02-01T07:41:35.625Z,37.23
2018-02-01T07:44:03.355Z,37.07
2018-02-01T07:46:31.035Z,36.53
2018-02-01T07:48:58.811Z,36.16
2018-02-01T07:51:26.358Z,35.76
2018-02-01T07:53:53.983Z,35.69
2018-02-01T07:56:21.632Z,35.72
2018-02-01T07:58:49.819Z,35.76
2018-02-01T08:01:17.711Z,35.69
2018-02-01T08:03:45.279Z,35.54
2018-02-01T08:06:12.882Z,35.51
2018-02-01T08:08:40.494Z,35.46
2018-02-01T08:11:08.096Z,35.43
2018-02-01T08:13:35.728Z,35.49
2018-02-01T08:16:03.618Z,35.33
2018-02-01T08:18:31.861Z,35.36
2018-02-01T08:20:59.502Z,35.34
2018-02-01T08:23:27.085Z,35.54
2018-02-01T08:25:54.674Z,35.40
2018-02-01T08:28:23.178Z,35.43
2018-02-01T08:30:51.887Z,35.49
2018-02-01T08:33:19.472Z,35.47
2018-02-01T08:35:47.093Z,35.32
2018-02-01T08:38:14.718Z,35.12
2018-02-01T08:40:42.263Z,35.12
2018-02-01T08:43:09.816Z,35.09
2018-02-01T08:45:37.440Z,35.11
2018-02-01T08:48:05.407Z,34.91
2018-02-01T08:50:32.969Z,34.68
2018-02-01T08:53:00.571Z,34.72
2018-02-01T08:55:28.115Z,34.89
2018-02-01T08:57:55.708Z,34.92
2018-02-01T09:00:23.272Z,35.01
2018-02-01T09:02:50.891Z,35.01
2018-02-01T09:05:18.487Z,35.06
2018-02-01T09:07:46.079Z,34.90
2018-02-01T09:10:14.044Z,35.02
2018-02-01T09:12:41.716Z,35.00
2018-02-01T09:15:09.317Z,34.98
2018-02-01T09:17:36.944Z,34.86
2018-02-01T09:20:04.633Z,34.91
2018-02-01T09:22:32.367Z,35.06
2018-02-01T09:24:59.914Z,35.07
2018-02-01T09:27:27.920Z,35.14
2018-02-01T09:29:55.467Z,35.19
2018-02-01T09:32:23.055Z,35.27
2018-02-01T09:34:50.650Z,35.01
2018-02-01T09:37:18.236Z,35.05
2018-02-01T09:39:45.854Z,35.10
2018-02-01T09:42:13.434Z,35.09
2018-02-01T09:44:41.103Z,35.10
2018-02-01T09:47:08.795Z,35.07
2018-02-01T09:49:36.892Z,35.14
2018-02-01T09:52:04.501Z,35.10
2018-02-01T09:54:32.067Z,35.08
2018-02-01T09:56:59.646Z,35.12
2018-02-01T09:59:27.489Z,35.13
2018-02-01T10:01:55.035Z,35.21
2018-02-01T10:04:22.699Z,35.31
2018-02-01T10:06:50.661Z,35.49
2018-02-01T10:09:18.251Z,35.51
2018-02-01T10:11:45.819Z,35.56
2018-02-01T10:14:15.314Z,35.61
2018-02-01T10:16:42.912Z,35.38
2018-02-01T10:19:10.455Z,35.48
2018-02-01T10:21:38.047Z,35.63
2018-02-01T10:24:05.592Z,35.74
2018-02-01T10:26:34.140Z,35.87
2018-02-01T10:29:01.716Z,35.71
2018-02-01T10:31:29.259Z,35.76
2018-02-01T10:33:56.855Z,35.88
2018-02-01T10:36:24.690Z,36.02
2018-02-01T10:38:52.641Z,36.06
2018-02-01T10:41:20.211Z,36.25
2018-02-01T10:43:47.816Z,36.27
2018-02-01T10:46:15.366Z,36.26
2018-02-01T10:48:42.963Z,36.33
2018-02-01T10:51:10.555Z,36.45
2018-02-01T10:53:38.153Z,36.55
2018-02-01T10:56:05.762Z,36.57
2018-02-01T10:58:33.350Z,36.55
2018-02-01T11:01:00.916Z,36.43
2018-02-01T11:03:28.513Z,36.37
2018-02-01T11:05:57.467Z,36.43
2018-02-01T11:08:26.040Z,36.52
2018-02-01T11:10:53.591Z,36.51
2018-02-01T11:13:21.716Z,36.47
2018-02-01T11:15:49.320Z,36.60
2018-02-01T11:18:16.930Z,36.70
2018-02-01T11:20:44.563Z,36.62
2018-02-01T11:23:12.107Z,36.65
2018-02-01T11:25:39.732Z,36.74
2018-02-01T11:28:07.329Z,36.85
2018-02-01T11:30:34.870Z,36.95
2018-02-01T11:33:02.941Z,37.05
2018-02-01T11:35:30.789Z,37.11
2018-02-01T11:37:58.469Z,37.22
2018-02-01T11:40:26.388Z,37.12
2018-02-01T11:42:53.937Z,37.12
2018-02-01T11:45:21.490Z,37.23
2018-02-01T11:47:49.083Z,37.35
2018-02-01T11:50:16.681Z,37.44
2018-02-01T11:52:44.224Z,37.54
2018-02-01T11:55:12.698Z,37.36
2018-02-01T11:57:40.342Z,37.36
2018-02-01T12:00:07.900Z,37.47
2018-02-01T12:02:35.528Z,37.58
2018-02-01T12:05:03.067Z,37.69
2018-02-01T12:07:30.610Z,37.84
2018-02-01T12:09:58.207Z,37.88
2018-02-01T12:12:26.144Z,37.97
2018-02-01T12:14:53.824Z,38.00
2018-02-01T12:17:21.436Z,38.05
2018-02-01T12:19:49.156Z,38.15
2018-02-01T12:22:17.639Z,38.18
2018-02-01T12:24:45.252Z,38.29
2018-02-01T12:27:12.993Z,38.28
2018-02-01T12:29:41.440Z,38.30
2018-02-01T12:32:10.000Z,38.33
2018-02-01T12:34:37.555Z,38.38
2018-02-01T12:37:05.160Z,38.44
2018-02-01T12:39:33.067Z,38.50
2018-02-01T12:42:01.206Z,38.12
2018-02-01T12:44:29.028Z,38.07
2018-02-01T12:46:56.646Z,38.11
2018-02-01T12:49:24.548Z,38.20
2018-02-01T12:51:52.168Z,38.16
2018-02-01T12:54:19.760Z,38.20
2018-02-01T12:56:47.454Z,38.26
2018-02-01T12:59:15.863Z,38.00
2018-02-01T13:01:43.407Z,38.11
2018-02-01T13:04:11.501Z,38.12
2018-02-01T13:06:39.198Z,38.21
2018-02-01T13:09:06.804Z,37.85
2018-02-01T13:11:34.407Z,38.00
2018-02-01T13:14:01.998Z,37.81
2018-02-01T13:16:29.596Z,38.05
2018-02-01T13:18:57.188Z,38.13
2018-02-01T13:21:24.799Z,38.14
2018-02-01T13:23:52.346Z,38.30
2018-02-01T13:26:20.667Z,38.37
2018-02-01T13:28:48.263Z,38.62
2018-02-01T13:31:16.684Z,38.65
2018-02-01T13:33:44.280Z,38.64
2018-02-01T13:36:13.040Z,38.68
2018-02-01T13:38:40.735Z,38.77
2018-02-01T13:41:08.506Z,38.79
2018-02-01T13:43:36.269Z,38.57
2018-02-01T13:46:03.917Z,38.67
2018-02-01T13:48:31.478Z,38.94
2018-02-01T13:50:59.029Z,38.95
2018-02-01T13:53:26.654Z,39.14
2018-02-01T13:55:54.786Z,39.39
2018-02-01T13:58:22.472Z,39.48
2018-02-01T14:00:50.619Z,39.52
2018-02-01T14:03:18.998Z,39.53
2018-02-01T14:05:46.610Z,39.62
2018-02-01T14:08:14.171Z,39.69
2018-02-01T14:10:41.947Z,39.68
2018-02-01T14:13:09.755Z,39.58
2018-02-01T14:15:37.364Z,39.62
2018-02-01T14:18:04.955Z,39.58
2018-02-01T14:20:32.555Z,39.69
2018-02-01T14:23:00.385Z,39.75
2018-02-01T14:25:27.978Z,39.78
2018-02-01T14:27:55.535Z,40.02
2018-02-01T14:30:23.144Z,39.99
2018-02-01T14:32:51.617Z,40.07
2018-02-01T14:35:19.164Z,39.74
2018-02-01T14:37:47.582Z,39.77
2018-02-01T14:40:15.389Z,39.85
2018-02-01T14:42:43.239Z,40.07
2018-02-01T14:45:10.810Z,40.12
2018-02-01T14:47:39.350Z,40.21
2018-02-01T14:50:06.949Z,40.26
2018-02-01T14:52:34.641Z,40.32
2018-02-01T14:55:02.971Z,40.34
2018-02-01T14:57:30.531Z,40.23
2018-02-01T14:59:58.075Z,40.24
2018-02-01T15:02:25.768Z,40.32
2018-02-01T15:04:53.356Z,40.36
2018-02-01T15:07:21.484Z,40.39
2018-02-01T15:09:49.912Z,40.52
2018-02-01T15:12:17.503Z,40.53
2018-02-01T15:14:45.073Z,40.62
2018-02-01T15:17:12.899Z,40.35
2018-02-01T15:19:40.617Z,40.01
2018-02-01T15:22:08.658Z,39.68
2018-02-01T15:24:36.215Z,39.34
2018-02-01T15:27:04.168Z,39.55
2018-02-01T15:29:32.334Z,39.75
2018-02-01T15:32:01.045Z,39.85
2018-02-01T15:34:29.685Z,39.99
2018-02-01T15:36:58.807Z,40.15
2018-02-01T15:39:26.769Z,40.41
2018-02-01T15:41:55.257Z,40.56
2018-02-01T15:44:23.257Z,40.55
2018-02-01T15:46:51.534Z,40.55
2018-02-01T15:49:20.532Z,40.69
2018-02-01T15:51:48.905Z,40.83
2018-02-01T15:54:16.476Z,41.00
2018-02-01T15:56:44.476Z,41.10
2018-02-01T15:59:12.830Z,41.23
2018-02-01T16:01:40.833Z,41.31
2018-02-01T16:04:08.769Z,41.45
2018-02-01T16:06:36.949Z,41.49
2018-02-01T16:09:05.419Z,41.45
2018-02-01T16:11:33.621Z,41.52
2018-02-01T16:14:02.492Z,41.54
2018-02-01T16:16:31.726Z,41.56
2018-02-01T16:19:01.566Z,41.62
2018-02-01T16:21:30.079Z,41.71
2018-02-01T16:24:00.206Z,41.79
2018-02-01T16:26:29.101Z,41.82
2018-02-01T16:28:58.792Z,41.82
2018-02-01T16:31:28.313Z,41.85
2018-02-01T16:33:59.059Z,41.92
2018-02-01T16:36:28.052Z,42.02
2018-02-01T16:38:59.185Z,42.11
2018-02-01T16:41:28.499Z,42.12
2018-02-01T16:43:57.160Z,42.23
2018-02-01T16:46:27.218Z,42.30
2018-02-01T16:48:55.243Z,42.17
2018-02-01T16:51:24.753Z,42.22
2018-02-01T16:53:53.248Z,42.23
2018-02-01T16:56:22.432Z,42.24
2018-02-01T16:58:52.666Z,42.26
2018-02-01T17:01:21.259Z,42.32
2018-02-01T17:03:51.649Z,42.38
2018-02-01T17:06:20.244Z,42.41
2018-02-01T17:08:48.715Z,42.38
2018-02-01T17:11:17.611Z,42.48
2018-02-01T17:13:46.300Z,42.56
2018-02-01T17:16:15.693Z,42.56
2018-02-01T17:18:44.076Z,42.63
2018-02-01T17:21:13.577Z,42.65
2018-02-01T17:23:43.941Z,42.82
2018-02-01T17:26:12.180Z,42.78
2018-02-01T17:28:43.018Z,42.75
2018-02-01T17:31:11.725Z,42.77
2018-02-01T17:33:40.198Z,42.83
2018-02-01T17:36:09.335Z,42.90
2018-02-01T17:38:37.379Z,42.96
2018-02-01T17:41:05.665Z,43.02
2018-02-01T17:43:34.936Z,43.08
2018-02-01T17:46:04.240Z,43.18
2018-02-01T17:48:34.742Z,43.22
2018-02-01T17:51:03.125Z,43.34
2018-02-01T17:53:32.154Z,43.38
2018-02-01T17:56:00.637Z,43.48
2018-02-01T17:58:29.189Z,43.46
2018-02-01T18:00:59.921Z,43.29
2018-02-01T18:03:29.026Z,43.46
2018-02-01T18:05:57.763Z,43.58
2018-02-01T18:08:26.269Z,43.71
2018-02-01T18:10:55.518Z,43.55
2018-02-01T18:13:23.771Z,43.51
2018-02-01T18:15:53.568Z,43.58
2018-02-01T18:18:23.159Z,43.63
2018-02-01T18:20:52.591Z,43.82
2018-02-01T18:23:20.856Z,43.67
2018-02-01T18:25:51.015Z,43.85
2018-02-01T18:28:19.823Z,43.98
2018-02-01T18:30:50.602Z,43.97
2018-02-01T18:33:19.588Z,43.85
2018-02-01T18:35:49.207Z,43.82
2018-02-01T18:38:19.521Z,43.68
2018-02-01T18:40:48.353Z,43.68
2018-02-01T18:43:17.654Z,43.74
2018-02-01T18:45:46.675Z,43.67
2018-02-01T18:48:16.254Z,43.76
2018-02-01T18:50:45.721Z,43.90
2018-02-01T18:53:15.227Z,43.87
2018-02-01T18:58:17.975Z,44.20
2018-02-01T19:00:46.871Z,44.19
2018-02-01T19:03:16.414Z,43.82
2018-02-01T19:05:44.546Z,43.57
2018-02-01T19:08:15.206Z,43.55
2018-02-01T19:10:43.351Z,43.92
2018-02-01T19:13:11.468Z,43.81
2018-02-01T19:15:40.215Z,43.48
2018-02-01T19:18:08.905Z,43.45
2018-02-01T19:20:38.305Z,43.71
2018-02-01T19:23:07.675Z,43.57
2018-02-01T19:25:36.190Z,43.42
2018-02-01T19:28:06.743Z,43.26
2018-02-01T19:30:35.661Z,43.23
2018-02-01T19:33:04.119Z,43.05
2018-02-01T19:35:32.520Z,43.24
2018-02-01T19:38:01.576Z,43.60
2018-02-01T19:40:29.945Z,44.15
2018-02-01T19:43:00.207Z,44.07
2018-02-01T19:45:29.055Z,44.04
2018-02-01T19:47:58.463Z,44.14
2018-02-01T19:50:27.652Z,43.90
2018-02-01T19:52:56.889Z,43.89
2018-02-01T19:55:25.136Z,44.00
2018-02-01T19:57:54.124Z,44.04
2018-02-01T20:00:22.581Z,43.97
2018-02-01T20:02:51.701Z,43.96
2018-02-01T20:05:22.542Z,43.89
2018-02-01T20:07:51.160Z,43.81
2018-02-01T20:10:21.273Z,43.79
2018-02-01T20:12:50.989Z,43.87
2018-02-01T20:15:19.817Z,43.94
2018-02-01T20:17:49.658Z,43.77
2018-02-01T20:20:19.365Z,43.79
2018-02-01T20:22:47.660Z,44.02
2018-02-01T20:25:16.123Z,44.00
2018-02-01T20:27:46.886Z,43.91
2018-02-01T20:30:16.970Z,43.88
2018-02-01T20:32:45.078Z,43.86
2018-02-01T20:35:14.079Z,43.80
2018-02-01T20:37:43.987Z,43.75
2018-02-01T20:40:14.606Z,43.68
2018-02-01T20:42:44.072Z,43.35
2018-02-01T20:45:13.289Z,43.27
2018-02-01T20:47:42.501Z,43.29
2018-02-01T20:50:10.555Z,43.23
2018-02-01T20:52:38.843Z,43.09
2018-02-01T20:55:06.834Z,43.10
2018-02-01T20:57:35.092Z,43.16
2018-02-01T21:00:04.071Z,43.30
2018-02-01T21:02:32.258Z,43.61
2018-02-01T21:05:00.520Z,43.46
2018-02-01T21:07:32.288Z,43.60
2018-02-01T21:10:02.503Z,43.65
2018-02-01T21:12:30.520Z,43.61
2018-02-01T21:14:59.563Z,43.75
2018-02-01T21:17:28.048Z,43.72
2018-02-01T21:19:57.551Z,43.56
2018-02-01T21:22:27.459Z,43.52
2018-02-01T21:24:56.767Z,43.57
2018-02-01T21:27:25.061Z,43.73
2018-02-01T21:29:53.486Z,43.92
2018-02-01T21:32:21.815Z,43.86
2018-02-01T21:34:50.421Z,43.71
2018-02-01T21:37:19.592Z,43.77
2018-02-01T21:39:47.763Z,43.66
2018-02-01T21:42:15.857Z,43.73
2018-02-01T21:44:44.543Z,43.78
2018-02-01T21:47:13.403Z,43.75
2018-02-01T21:49:42.028Z,43.78
2018-02-01T21:52:10.013Z,43.82
2018-02-01T21:54:38.056Z,43.75
2018-02-01T21:57:06.728Z,43.74
2018-02-01T21:59:35.088Z,43.75
2018-02-01T22:02:03.363Z,43.88
2018-02-01T22:04:32.294Z,43.77
2018-02-01T22:07:00.630Z,43.89
2018-02-01T22:09:28.726Z,43.87
2018-02-01T22:11:56.815Z,43.95
2018-02-01T22:14:24.806Z,43.96
2018-02-01T22:16:52.757Z,43.99
2018-02-01T22:19:21.602Z,43.95
2018-02-01T22:21:49.601Z,44.02
2018-02-01T22:24:17.688Z,44.05
2018-02-01T22:26:45.662Z,43.96
2018-02-01T22:29:13.210Z,43.98
2018-02-01T22:31:40.791Z,44.00
2018-02-01T22:34:08.325Z,44.08
2018-02-01T22:36:35.995Z,44.04
2018-02-01T22:39:03.981Z,44.02
2018-02-01T22:41:32.886Z,44.03
2018-02-01T22:44:00.430Z,44.17
2018-02-01T22:46:27.979Z,44.10
2018-02-01T22:48:55.563Z,44.03
2018-02-01T22:51:23.107Z,43.99
2018-02-01T22:53:50.988Z,43.96
2018-02-01T22:56:18.525Z,44.00
2018-02-01T22:58:46.099Z,44.07
2018-02-01T23:01:13.631Z,44.04
2018-02-01T23:03:41.210Z,44.10
2018-02-01T23:06:08.819Z,44.14
2018-02-01T23:08:36.422Z,44.04
2018-02-01T23:11:04.031Z,43.98
2018-02-01T23:13:31.876Z,44.01
2018-02-01T23:15:59.622Z,44.13
2018-02-01T23:18:27.410Z,44.28
2018-02-01T23:20:54.995Z,44.22
2018-02-01T23:23:22.629Z,44.27
2018-02-01T23:25:50.157Z,44.19
2018-02-01T23:28:17.693Z,44.14
2018-02-01T23:30:45.287Z,44.22
2018-02-01T23:33:12.883Z,44.37
2018-02-01T23:35:40.591Z,44.34
2018-02-01T23:38:08.938Z,44.39
2018-02-01T23:40:36.511Z,44.38
2018-02-01T23:43:04.127Z,44.37
2018-02-01T23:45:31.715Z,44.31
2018-02-01T23:47:59.249Z,44.26
2018-02-01T23:50:26.826Z,44.28
2018-02-01T23:55:27.104Z,44.29
2018-02-01T23:57:54.713Z,44.23
